createdAt,value
2023-01-13T00:01:41.903Z,75.03
2023-01-13T00:06:41.744Z,74.98
2023-01-13T00:11:41.160Z,74.97
2023-01-13T00:16:40.313Z,75.10
2023-01-13T00:21:39.367Z,75.14
2023-01-13T00:26:38.471Z,75.17
2023-01-13T00:31:37.994Z,75.14
2023-01-13T00:36:37.315Z,75.23
2023-01-13T00:41:50.089Z,75.35
2023-01-13T00:46:49.323Z,75.54
2023-01-13T00:51:48.906Z,75.91
2023-01-13T00:56:48.296Z,76.01
2023-01-13T01:01:47.870Z,76.14
2023-01-13T01:06:47.129Z,76.38
2023-01-13T01:11:46.861Z,76.68
2023-01-13T01:16:46.616Z,77.38
2023-01-13T01:21:45.304Z,78.43
2023-01-13T01:26:44.737Z,78.95
2023-01-13T01:31:44.900Z,79.49
2023-01-13T01:36:44.403Z,79.71
2023-01-13T01:42:03.684Z,79.90
2023-01-13T01:47:05.079Z,79.92
2023-01-13T01:52:10.642Z,79.91
2023-01-13T01:57:17.165Z,80.00
2023-01-13T02:02:17.771Z,80.26
2023-01-13T02:07:17.924Z,80.63
2023-01-13T02:12:33.336Z,80.93
2023-01-13T02:17:53.150Z,81.11
2023-01-13T02:24:22.745Z,81.19
2023-01-13T02:30:05.953Z,81.21
2023-01-13T02:35:15.995Z,81.22
2023-01-13T02:40:26.502Z,81.30
2023-01-13T02:45:33.877Z,81.22
2023-01-13T02:50:40.912Z,81.07
2023-01-13T02:55:47.911Z,81.16
2023-01-13T03:00:49.628Z,81.39
2023-01-13T03:05:53.721Z,81.57
2023-01-13T03:11:05.417Z,81.63
2023-01-13T03:16:18.442Z,81.62
2023-01-13T03:21:27.261Z,81.59
2023-01-13T03:26:37.511Z,81.53
2023-01-13T03:31:45.533Z,81.46
2023-01-13T03:36:47.560Z,81.35
2023-01-13T03:41:54.814Z,81.36
2023-01-13T03:47:05.176Z,81.71
2023-01-13T03:52:10.072Z,81.88
2023-01-13T03:57:14.741Z,82.04
2023-01-13T04:02:26.185Z,82.07
2023-01-13T04:07:39.139Z,82.18
2023-01-13T04:13:05.322Z,82.46
2023-01-13T04:18:22.039Z,82.82
2023-01-13T04:23:23.043Z,83.13
2023-01-13T04:28:23.833Z,83.48
2023-01-13T04:33:23.661Z,83.81
2023-01-13T04:38:24.581Z,84.04
2023-01-13T04:43:23.610Z,84.19
2023-01-13T04:48:22.830Z,84.28
2023-01-13T04:53:22.195Z,84.39
2023-01-13T04:58:22.730Z,84.57
2023-01-13T05:03:21.776Z,84.62
2023-01-13T05:08:21.132Z,84.69
2023-01-13T05:13:38.344Z,84.75
2023-01-13T05:18:38.286Z,84.75
2023-01-13T05:23:55.827Z,84.71
2023-01-13T05:28:55.162Z,84.71
2023-01-13T05:33:53.964Z,84.86
2023-01-13T05:38:54.506Z,85.08
2023-01-13T05:43:54.348Z,85.26
2023-01-13T05:48:54.027Z,85.40
2023-01-13T05:53:54.877Z,85.59
2023-01-13T05:58:55.641Z,85.75
2023-01-13T06:04:01.447Z,85.90
2023-01-13T06:09:03.639Z,86.03
2023-01-13T06:14:04.683Z,86.13
2023-01-13T06:19:09.332Z,86.24
2023-01-13T06:24:13.260Z,86.36
2023-01-13T06:29:16.940Z,86.46
2023-01-13T06:34:19.428Z,86.63
2023-01-13T06:39:24.469Z,86.75
2023-01-13T06:44:26.646Z,86.93
2023-01-13T06:49:25.508Z,87.02
2023-01-13T06:54:26.347Z,87.07
2023-01-13T06:59:27.432Z,87.07
2023-01-13T07:04:27.556Z,87.11
2023-01-13T07:09:27.000Z,87.10
2023-01-13T07:14:44.053Z,87.11
2023-01-13T07:19:44.253Z,87.11
2023-01-13T07:24:46.132Z,87.14
2023-01-13T07:29:46.352Z,87.11
2023-01-13T07:34:45.985Z,87.13
2023-01-13T07:39:46.706Z,87.10
2023-01-13T07:44:46.091Z,87.10
2023-01-13T07:49:47.339Z,87.10
2023-01-13T07:54:46.624Z,87.10
2023-01-13T07:59:46.250Z,87.09
2023-01-13T08:04:45.238Z,87.10
2023-01-13T08:09:45.012Z,87.10
2023-01-13T08:14:45.259Z,87.10
2023-01-13T08:19:44.320Z,87.10
2023-01-13T08:24:43.632Z,87.10
2023-01-13T08:29:42.469Z,87.10
2023-01-13T08:34:43.210Z,87.09
2023-01-13T08:39:42.165Z,87.03
2023-01-13T08:44:42.029Z,87.03
2023-01-13T08:49:41.235Z,87.01
2023-01-13T08:54:43.152Z,87.00
2023-01-13T08:59:44.589Z,86.92
2023-01-13T09:04:44.794Z,86.83
2023-01-13T09:09:44.963Z,86.80
2023-01-13T09:14:44.695Z,86.57
2023-01-13T09:19:44.635Z,86.47
2023-01-13T09:24:43.606Z,86.26
2023-01-13T09:29:43.433Z,86.06
2023-01-13T09:35:03.106Z,85.79
2023-01-13T09:40:03.183Z,85.53
2023-01-13T09:45:12.581Z,85.32
2023-01-13T09:50:34.979Z,85.11
2023-01-13T09:55:39.429Z,84.79
2023-01-13T10:00:47.357Z,84.68
2023-01-13T10:05:57.528Z,84.53
2023-01-13T10:11:01.375Z,84.31
2023-01-13T10:16:26.497Z,84.08
2023-01-13T10:21:56.114Z,83.71
2023-01-13T10:27:05.036Z,83.67
2023-01-13T10:32:05.401Z,83.29
2023-01-13T10:37:07.682Z,83.07
2023-01-13T10:42:14.416Z,82.55
2023-01-13T10:47:27.197Z,82.38
2023-01-13T10:52:33.662Z,81.89
2023-01-13T10:57:39.717Z,81.56
2023-01-13T11:02:40.433Z,81.25
2023-01-13T11:07:42.918Z,80.68
2023-01-13T11:12:55.110Z,80.42
2023-01-13T11:18:03.143Z,80.17
2023-01-13T11:23:12.800Z,79.81
2023-01-13T11:28:40.160Z,79.24
2023-01-13T11:33:49.408Z,79.07
2023-01-13T11:38:55.285Z,78.82
2023-01-13T11:44:00.953Z,78.54
2023-01-13T11:49:01.632Z,78.12
2023-01-13T11:54:28.088Z,77.84
2023-01-13T11:59:56.395Z,77.50
2023-01-13T12:05:10.470Z,77.58
2023-01-13T12:10:19.408Z,77.32
2023-01-13T12:16:02.835Z,77.24
2023-01-13T12:21:20.631Z,77.24
2023-01-13T12:26:22.036Z,77.23
2023-01-13T12:31:24.156Z,77.04
2023-01-13T12:36:36.247Z,76.92
2023-01-13T12:42:00.537Z,76.74
2023-01-13T12:47:03.248Z,76.80
2023-01-13T12:52:22.263Z,77.04
2023-01-13T12:57:28.354Z,76.70
2023-01-13T13:02:42.263Z,76.91
2023-01-13T13:07:49.670Z,77.11
2023-01-13T13:13:23.563Z,77.25
2023-01-13T13:18:35.692Z,77.33
2023-01-13T13:24:05.711Z,77.26
2023-01-13T13:29:35.590Z,77.18
2023-01-13T13:34:48.270Z,77.05
2023-01-13T13:40:06.404Z,76.86
2023-01-13T13:45:35.291Z,76.71
2023-01-13T13:50:35.251Z,76.96
2023-01-13T13:55:35.633Z,76.78
2023-01-13T14:00:39.803Z,76.72
2023-01-13T14:05:41.141Z,76.82
2023-01-13T14:10:45.486Z,76.71
2023-01-13T14:15:46.050Z,76.60
2023-01-13T14:20:53.727Z,76.65
2023-01-13T14:25:54.884Z,76.75
2023-01-13T14:30:55.583Z,76.84
2023-01-13T14:36:19.338Z,76.75
2023-01-13T14:41:27.046Z,76.72
2023-01-13T14:46:27.214Z,76.69
2023-01-13T14:51:32.941Z,76.75
2023-01-13T14:56:55.341Z,76.90
2023-01-13T15:01:55.648Z,76.92
2023-01-13T15:06:58.784Z,76.98
2023-01-13T15:11:59.003Z,77.00
2023-01-13T15:16:59.005Z,76.89
2023-01-13T15:21:58.032Z,76.81
2023-01-13T15:26:57.775Z,76.89
2023-01-13T15:31:58.581Z,77.04
2023-01-13T15:36:58.063Z,77.11
2023-01-13T15:42:15.637Z,77.14
2023-01-13T15:47:17.649Z,77.18
2023-01-13T15:52:26.018Z,77.25
2023-01-13T15:57:29.329Z,77.20
2023-01-13T16:02:29.972Z,77.14
2023-01-13T16:07:30.105Z,77.37
2023-01-13T16:12:29.915Z,77.55
2023-01-13T16:17:32.282Z,77.72
2023-01-13T16:22:32.650Z,77.78
2023-01-13T16:27:32.044Z,77.94
2023-01-13T16:32:51.130Z,78.21
2023-01-13T16:37:51.239Z,78.40
2023-01-13T16:42:52.315Z,78.53
2023-01-13T16:47:51.959Z,78.57
2023-01-13T16:52:51.428Z,78.61
2023-01-13T16:57:52.440Z,78.79
2023-01-13T17:02:52.472Z,78.96
2023-01-13T17:07:52.443Z,79.11
2023-01-13T17:12:52.277Z,79.11
2023-01-13T17:17:53.098Z,79.08
2023-01-13T17:22:58.265Z,79.04
2023-01-13T17:27:58.882Z,79.04
2023-01-13T17:32:58.271Z,79.11
2023-01-13T17:37:58.068Z,79.19
2023-01-13T17:42:57.591Z,79.18
2023-01-13T17:48:00.481Z,79.17
2023-01-13T17:52:59.946Z,79.17
2023-01-13T17:58:02.402Z,79.32
2023-01-13T18:03:02.056Z,79.40
2023-01-13T18:08:01.216Z,79.57
2023-01-13T18:13:00.484Z,79.88
2023-01-13T18:18:00.505Z,80.25
2023-01-13T18:23:18.035Z,80.79
2023-01-13T18:28:17.204Z,81.35
2023-01-13T18:33:16.149Z,81.75
2023-01-13T18:38:15.891Z,82.10
2023-01-13T18:43:15.704Z,82.39
2023-01-13T18:48:16.676Z,82.68
2023-01-13T18:53:17.180Z,82.83
2023-01-13T18:58:20.499Z,82.93
2023-01-13T19:03:30.099Z,83.04
2023-01-13T19:08:33.866Z,83.14
2023-01-13T19:13:33.219Z,83.29
2023-01-13T19:18:35.842Z,83.43
2023-01-13T19:23:35.729Z,83.53
2023-01-13T19:28:35.545Z,83.64
2023-01-13T19:33:39.255Z,83.69
2023-01-13T19:38:45.379Z,83.75
2023-01-13T19:44:03.383Z,83.88
2023-01-13T19:49:03.053Z,83.97
2023-01-13T19:54:03.062Z,84.07
2023-01-13T19:59:14.523Z,84.17
2023-01-13T20:04:17.264Z,84.23
2023-01-13T20:09:17.513Z,84.31
2023-01-13T20:14:17.662Z,84.37
2023-01-13T20:19:17.405Z,84.39
2023-01-13T20:24:20.200Z,84.49
2023-01-13T20:29:18.913Z,84.54
2023-01-13T20:34:19.989Z,84.50
2023-01-13T20:39:22.773Z,84.36
2023-01-13T20:44:22.930Z,84.10
2023-01-13T20:49:24.829Z,83.71
2023-01-13T20:54:26.061Z,83.28
2023-01-13T20:59:25.110Z,82.83
2023-01-13T21:04:24.843Z,82.45
2023-01-13T21:09:26.850Z,82.20
2023-01-13T21:14:46.419Z,81.93
2023-01-13T21:19:45.867Z,81.61
2023-01-13T21:24:45.321Z,81.51
2023-01-13T21:29:44.793Z,81.43
2023-01-13T21:34:45.005Z,81.32
2023-01-13T21:39:45.077Z,81.24
2023-01-13T21:45:01.499Z,81.21
2023-01-13T21:50:00.698Z,81.07
2023-01-13T21:55:13.394Z,81.01
2023-01-13T22:00:21.646Z,80.85
2023-01-13T22:05:26.521Z,80.77
2023-01-13T22:10:30.028Z,80.69
2023-01-13T22:15:31.496Z,80.71
2023-01-13T22:20:31.178Z,80.69
2023-01-13T22:25:30.601Z,80.61
2023-01-13T22:30:32.479Z,80.60
2023-01-13T22:35:32.437Z,80.60
2023-01-13T22:40:31.758Z,80.67
2023-01-13T22:45:31.957Z,80.69
2023-01-13T22:50:31.169Z,80.68
2023-01-13T22:55:30.805Z,80.67
2023-01-13T23:00:30.385Z,80.60
2023-01-13T23:05:31.571Z,80.53
2023-01-13T23:10:31.041Z,80.51
2023-01-13T23:15:31.081Z,80.42
2023-01-13T23:20:31.131Z,80.36
2023-01-13T23:25:30.626Z,80.28
2023-01-13T23:30:30.191Z,80.23
2023-01-13T23:35:30.541Z,80.21
2023-01-13T23:40:30.118Z,80.24
2023-01-13T23:45:29.244Z,80.13
2023-01-13T23:50:28.785Z,80.08
2023-01-13T23:55:28.656Z,80.02
